Aérodrome :
LOGIN :

S'inscrire | Disclaimer

   EN    FR    IT 

 










Légende :    VFR   VFR Marginal   IFR   IFR Intensif   IFR Très Intensif
Visi : 
Plafond : 
>= 8 km
>= 3000ft
5 à 8 km
1000 à 3000 ft
1500m à 5 km
500 à 1000 ft
800 à 1500m
200 à 500 ft
< 800m
< 200 ft
Symboles :   Orages  Brouillard  Fortes neiges  Fortes précipitations  Vent > 20 kt
SIGMETs :   Divers  Orages  Givrage  Turbulence  Onde Orograph.  Cendres Volcan.







- Altitude de l'aérodrome : 84 ft
- Voir les cartes d'approche


LFBC - Cazaux

DERNIER METAR :
  • 240930Z AUTO 09006KT 010V140 CAVOK 24/15 Q1022 NOSIG

METARs EXPIRÉS :
  • 240900Z AUTO 10007KT 040V150 CAVOK 23/15 Q1022 NOSIG
  • 240830Z AUTO 07006KT CAVOK 22/15 Q1022 NOSIG
  • 240800Z AUTO 07004KT 010V100 CAVOK 20/15 Q1022 NOSIG
  • 240730Z AUTO 07005KT CAVOK 19/15 Q1022 NOSIG
  • 240700Z AUTO 05004KT CAVOK 18/15 Q1023 NOSIG

TAF TAF LFBC
Valide du 24 à 09h jusqu'au 25 à 09h UTC


240800Z 2409/2509 07008KT CAVOK
Pas de NOTAMs connus pour ce terrain.



MET'MAP, la Météo Aéronautique d'un coup d'oeil ! - Copyright ORBIFLY Décembre 2007 - Disclaimer

ORBIFLY MET'MAP TEAM :

Programmation & Développement : Alexandra Zaïnal
Conception & Développement : Baudouin d'Aumeries
Co-Programmation & Développement : Marc-Olivier Méhu
Soutien technique & logistique : Manuel Goepfert

Contact : metmap@orbifly.com




SOURCES & CREDITS :

   NOAA